createdAt,value
2024-03-19T00:02:13.295Z,101565.08
2024-03-19T00:04:45.945Z,101560.73
2024-03-19T00:07:15.298Z,101559.58
2024-03-19T00:09:44.561Z,101557.92
2024-03-19T00:12:13.997Z,101555.05
2024-03-19T00:14:45.502Z,101553.49
2024-03-19T00:17:14.915Z,101550.80
2024-03-19T00:19:44.268Z,101554.36
2024-03-19T00:22:13.607Z,101560.21
2024-03-19T00:24:44.314Z,101559.77
2024-03-19T00:27:13.700Z,101562.32
2024-03-19T00:29:45.435Z,101561.67
2024-03-19T00:32:14.771Z,101561.48
2024-03-19T00:34:44.338Z,101563.42
2024-03-19T00:37:16.102Z,101561.53
2024-03-19T00:39:45.454Z,101566.77
2024-03-19T00:42:14.833Z,101566.36
2024-03-19T00:44:46.449Z,101570.40
2024-03-19T00:47:17.908Z,101569.08
2024-03-19T00:49:47.325Z,101567.83
2024-03-19T00:52:19.141Z,101565.35
2024-03-19T00:54:48.634Z,101563.95
2024-03-19T00:57:18.140Z,101565.61
2024-03-19T00:59:47.991Z,101566.77
2024-03-19T01:02:18.125Z,101565.71
2024-03-19T01:07:23.251Z,101568.13
2024-03-19T01:09:57.782Z,101567.45
2024-03-19T01:12:27.214Z,101568.17
2024-03-19T01:14:56.840Z,101570.13
2024-03-19T01:17:26.220Z,101569.89
2024-03-19T01:19:55.553Z,101569.83
2024-03-19T01:22:27.766Z,101569.23
2024-03-19T01:24:57.151Z,101568.77
2024-03-19T01:27:26.513Z,101568.55
2024-03-19T01:29:58.246Z,101569.56
2024-03-19T01:32:27.737Z,101568.23
2024-03-19T01:34:57.065Z,101565.42
2024-03-19T01:37:26.389Z,101565.00
2024-03-19T01:39:55.716Z,101566.48
2024-03-19T01:42:27.649Z,101565.01
2024-03-19T01:45:12.445Z,101564.06
2024-03-19T01:47:45.053Z,101565.73
2024-03-19T01:50:15.587Z,101566.69
2024-03-19T01:52:48.559Z,101565.35
2024-03-19T01:55:18.797Z,101563.30
2024-03-19T01:57:50.959Z,101560.41
2024-03-19T02:00:22.709Z,101559.52
2024-03-19T02:02:52.200Z,101561.09
2024-03-19T02:05:21.543Z,101562.58
2024-03-19T02:07:50.924Z,101561.09
2024-03-19T02:10:22.466Z,101558.08
2024-03-19T02:12:54.423Z,101554.90
2024-03-19T02:15:23.764Z,101557.23
2024-03-19T02:17:55.419Z,101553.95
2024-03-19T02:20:28.002Z,101550.90
2024-03-19T02:22:57.313Z,101547.22
2024-03-19T02:25:27.297Z,101546.00
2024-03-19T02:27:58.228Z,101548.91
2024-03-19T02:30:27.793Z,101549.35
2024-03-19T02:32:59.507Z,101549.41
2024-03-19T02:35:28.942Z,101546.14
2024-03-19T02:37:58.302Z,101541.88
2024-03-19T02:40:27.715Z,101541.36
2024-03-19T02:42:57.034Z,101536.24
2024-03-19T02:45:28.999Z,101535.09
2024-03-19T02:48:00.576Z,101536.77
2024-03-19T02:50:30.427Z,101536.05
2024-03-19T02:53:02.095Z,101532.27
2024-03-19T02:55:32.511Z,101530.05
2024-03-19T02:58:01.820Z,101529.02
2024-03-19T03:00:31.205Z,101528.56
2024-03-19T03:03:00.643Z,101524.47
2024-03-19T03:05:32.476Z,101522.42
2024-03-19T03:08:04.578Z,101523.08
2024-03-19T03:10:34.250Z,101523.94
2024-03-19T03:13:06.885Z,101520.94
2024-03-19T03:15:36.330Z,101520.99
2024-03-19T03:18:06.802Z,101525.66
2024-03-19T03:20:36.327Z,101522.12
2024-03-19T03:23:08.666Z,101522.77
2024-03-19T03:25:39.194Z,101521.41
2024-03-19T03:28:09.074Z,101519.60
2024-03-19T03:30:38.783Z,101519.94
2024-03-19T03:33:12.815Z,101519.82
2024-03-19T03:35:43.856Z,101519.77
2024-03-19T03:38:13.278Z,101524.98
2024-03-19T03:40:45.328Z,101525.05
2024-03-19T03:43:14.684Z,101526.23
2024-03-19T03:45:48.730Z,101528.46
2024-03-19T03:48:18.740Z,101526.98
2024-03-19T03:50:48.088Z,101524.20
2024-03-19T03:53:19.574Z,101531.28
2024-03-19T03:55:48.838Z,101527.23
2024-03-19T03:58:18.201Z,101523.76
2024-03-19T04:00:48.471Z,101525.60
2024-03-19T04:03:18.248Z,101525.65
2024-03-19T04:05:50.012Z,101528.91
2024-03-19T04:08:21.521Z,101533.30
2024-03-19T04:10:51.072Z,101533.80
2024-03-19T04:13:20.470Z,101530.19
2024-03-19T04:15:51.956Z,101531.57
2024-03-19T04:18:23.459Z,101534.48
2024-03-19T04:20:53.288Z,101540.02
2024-03-19T04:23:22.663Z,101538.38
2024-03-19T04:25:52.028Z,101539.20
2024-03-19T04:28:21.385Z,101537.34
2024-03-19T04:30:50.842Z,101542.34
2024-03-19T04:33:20.276Z,101545.30
2024-03-19T04:35:49.568Z,101545.96
2024-03-19T04:38:21.307Z,101542.17
2024-03-19T04:40:52.828Z,101544.30
2024-03-19T04:43:24.341Z,101535.95
2024-03-19T04:45:56.079Z,101535.77
2024-03-19T04:48:25.542Z,101531.41
2024-03-19T04:50:55.308Z,101532.95
2024-03-19T04:53:24.695Z,101543.60
2024-03-19T04:55:54.392Z,101547.50
2024-03-19T04:58:23.799Z,101552.09
2024-03-19T05:00:55.440Z,101551.48
2024-03-19T05:03:24.940Z,101557.48
2024-03-19T05:05:54.391Z,101562.52
2024-03-19T05:08:24.030Z,101559.70
2024-03-19T05:10:55.588Z,101555.06
2024-03-19T05:13:25.170Z,101549.73
2024-03-19T05:15:56.793Z,101547.45
2024-03-19T05:18:26.487Z,101545.63
2024-03-19T05:20:56.060Z,101551.85
2024-03-19T05:23:30.275Z,101550.74
2024-03-19T05:25:59.796Z,101549.27
2024-03-19T05:28:31.474Z,101543.49
2024-03-19T05:31:00.858Z,101545.37
2024-03-19T05:33:30.233Z,101538.84
2024-03-19T05:35:59.485Z,101540.52
2024-03-19T05:38:28.805Z,101542.61
2024-03-19T05:40:58.231Z,101540.59
2024-03-19T05:43:30.690Z,101545.04
2024-03-19T05:46:02.483Z,101538.52
2024-03-19T05:48:33.177Z,101540.73
2024-03-19T05:51:05.335Z,101546.16
2024-03-19T05:53:37.163Z,101542.76
2024-03-19T05:56:09.469Z,101543.21
2024-03-19T05:58:40.916Z,101546.67
2024-03-19T06:01:10.322Z,101549.06
2024-03-19T06:03:43.889Z,101553.48
2024-03-19T06:06:18.182Z,101560.20
2024-03-19T06:08:49.486Z,101566.65
2024-03-19T06:11:18.844Z,101573.06
2024-03-19T06:13:48.199Z,101578.04
2024-03-19T06:16:18.256Z,101576.70
2024-03-19T06:18:50.508Z,101578.26
2024-03-19T06:21:19.996Z,101578.77
2024-03-19T06:23:51.382Z,101583.48
2024-03-19T06:26:20.897Z,101585.89
2024-03-19T06:28:50.223Z,101586.83
2024-03-19T06:31:19.661Z,101587.18
2024-03-19T06:33:49.484Z,101585.08
2024-03-19T06:36:19.184Z,101574.71
2024-03-19T06:38:50.944Z,101571.17
2024-03-19T06:41:22.857Z,101575.36
2024-03-19T06:43:52.213Z,101566.16
2024-03-19T06:46:21.547Z,101565.54
2024-03-19T06:48:50.950Z,101564.38
2024-03-19T06:51:20.317Z,101561.07
2024-03-19T06:53:51.920Z,101559.55
2024-03-19T06:56:21.293Z,101560.85
2024-03-19T06:58:50.657Z,101560.05
2024-03-19T07:01:20.117Z,101556.87
2024-03-19T07:03:59.817Z,101560.85
2024-03-19T07:06:33.430Z,101563.31
2024-03-19T07:09:02.814Z,101567.30
2024-03-19T07:11:33.052Z,101567.42
2024-03-19T07:14:06.032Z,101567.44
2024-03-19T07:16:35.429Z,101565.69
2024-03-19T07:19:04.884Z,101567.14
2024-03-19T07:21:34.281Z,101565.45
2024-03-19T07:24:03.859Z,101571.34
2024-03-19T07:26:33.227Z,101574.41
2024-03-19T07:29:04.934Z,101577.70
2024-03-19T07:31:34.367Z,101575.58
2024-03-19T07:34:03.832Z,101575.13
2024-03-19T07:36:37.048Z,101578.98
2024-03-19T07:39:12.888Z,101583.88
2024-03-19T07:41:44.722Z,101581.80
2024-03-19T07:44:16.295Z,101584.05
2024-03-19T07:46:45.771Z,101588.64
2024-03-19T07:49:15.539Z,101580.61
2024-03-19T07:51:45.039Z,101581.73
2024-03-19T07:54:14.450Z,101581.54
2024-03-19T07:56:45.141Z,101587.45
2024-03-19T07:59:19.075Z,101589.36
2024-03-19T08:01:50.268Z,101587.88
2024-03-19T08:04:21.546Z,101591.75
2024-03-19T08:06:51.547Z,101596.05
2024-03-19T08:09:21.348Z,101597.70
2024-03-19T08:11:50.716Z,101597.85
2024-03-19T08:14:20.143Z,101599.06
2024-03-19T08:16:49.782Z,101599.02
2024-03-19T08:19:21.729Z,101601.90
2024-03-19T08:21:51.216Z,101597.66
2024-03-19T08:24:20.584Z,101600.52
2024-03-19T08:26:50.084Z,101602.02
2024-03-19T08:29:21.873Z,101605.08
2024-03-19T08:31:51.307Z,101606.05
2024-03-19T08:34:20.641Z,101601.52
2024-03-19T08:36:50.019Z,101603.60
2024-03-19T08:39:19.858Z,101606.23
2024-03-19T08:41:49.856Z,101606.70
2024-03-19T08:44:21.600Z,101606.79
2024-03-19T08:46:53.305Z,101607.04
2024-03-19T08:49:22.958Z,101603.86
2024-03-19T08:51:52.465Z,101603.20
2024-03-19T08:54:22.006Z,101606.74
2024-03-19T08:56:52.633Z,101603.75
2024-03-19T08:59:22.103Z,101607.46
2024-03-19T09:01:51.553Z,101607.91
2024-03-19T09:04:21.052Z,101611.31
2024-03-19T09:06:50.432Z,101608.88
2024-03-19T09:09:19.853Z,101607.33
2024-03-19T09:11:52.750Z,101608.29
2024-03-19T09:14:22.318Z,101609.06
2024-03-19T09:16:51.667Z,101609.00
2024-03-19T09:19:25.367Z,101605.48
2024-03-19T09:21:55.565Z,101607.19
2024-03-19T09:24:24.927Z,101605.92
2024-03-19T09:26:56.666Z,101606.27
2024-03-19T09:29:26.085Z,101610.11
2024-03-19T09:31:55.550Z,101609.77
2024-03-19T09:34:24.961Z,101610.84
2024-03-19T09:36:54.346Z,101617.11
2024-03-19T09:39:23.696Z,101612.95
2024-03-19T09:42:03.308Z,101614.29
2024-03-19T09:44:33.272Z,101611.90
2024-03-19T09:47:05.155Z,101603.70
2024-03-19T09:49:37.819Z,101603.95
2024-03-19T09:52:08.237Z,101608.39
2024-03-19T09:54:38.688Z,101606.77
2024-03-19T09:57:18.777Z,101603.86
2024-03-19T09:59:48.470Z,101597.03
2024-03-19T10:02:21.836Z,101603.70
2024-03-19T10:04:51.341Z,101603.66
2024-03-19T10:07:22.284Z,101596.71
2024-03-19T10:09:55.690Z,101591.09
2024-03-19T10:12:25.450Z,101590.30
2024-03-19T10:14:56.036Z,101588.09
2024-03-19T10:17:26.376Z,101591.36
2024-03-19T10:19:57.752Z,101586.49
2024-03-19T10:22:29.053Z,101583.62
2024-03-19T10:24:58.546Z,101579.71
2024-03-19T10:27:28.417Z,101573.23
2024-03-19T10:30:00.764Z,101576.07
2024-03-19T10:32:33.588Z,101569.07
2024-03-19T10:35:07.064Z,101571.17
2024-03-19T10:37:40.174Z,101568.94
2024-03-19T10:40:13.893Z,101567.33
2024-03-19T10:42:45.819Z,101567.36
2024-03-19T10:45:18.837Z,101565.44
2024-03-19T10:47:51.991Z,101568.14
2024-03-19T10:50:23.223Z,101558.27
2024-03-19T10:52:59.973Z,101554.17
2024-03-19T10:55:31.525Z,101550.74
2024-03-19T10:58:07.733Z,101550.09
2024-03-19T11:00:43.047Z,101552.91
2024-03-19T11:03:21.798Z,101558.71
2024-03-19T11:05:55.347Z,101555.45
2024-03-19T11:08:30.256Z,101552.80
2024-03-19T11:11:09.741Z,101552.92
2024-03-19T11:13:39.297Z,101554.80
2024-03-19T11:16:20.584Z,101549.29
2024-03-19T11:18:56.186Z,101544.98
2024-03-19T11:21:28.636Z,101542.30
2024-03-19T11:23:58.277Z,101539.81
2024-03-19T11:26:29.392Z,101544.80
2024-03-19T11:29:05.683Z,101550.37
2024-03-19T11:31:44.348Z,101548.67
2024-03-19T11:34:16.317Z,101544.40
2024-03-19T11:36:49.689Z,101546.92
2024-03-19T11:39:19.920Z,101546.94
2024-03-19T11:41:50.990Z,101558.92
2024-03-19T11:44:25.820Z,101559.77
2024-03-19T11:46:55.515Z,101560.38
2024-03-19T11:49:30.540Z,101559.73
2024-03-19T11:52:01.372Z,101556.65
2024-03-19T11:54:32.747Z,101553.23
2024-03-19T11:57:04.691Z,101554.91
2024-03-19T11:59:36.396Z,101555.52
2024-03-19T12:02:12.965Z,101552.64
2024-03-19T12:04:42.234Z,101553.73
2024-03-19T12:07:14.186Z,101557.67
2024-03-19T12:09:43.513Z,101552.77
2024-03-19T12:12:14.655Z,101552.63
2024-03-19T12:14:45.688Z,101559.72
2024-03-19T12:17:15.948Z,101561.86
2024-03-19T12:19:45.354Z,101570.20
2024-03-19T12:22:17.657Z,101563.14
2024-03-19T12:24:52.193Z,101567.40
2024-03-19T12:27:26.624Z,101563.41
2024-03-19T12:29:59.300Z,101564.60
2024-03-19T12:32:38.049Z,101568.04
2024-03-19T12:35:14.457Z,101566.41
2024-03-19T12:37:45.112Z,101566.18
2024-03-19T12:40:19.889Z,101564.11
2024-03-19T12:42:50.615Z,101565.41
2024-03-19T12:45:20.661Z,101565.34
2024-03-19T12:47:50.790Z,101568.27
2024-03-19T12:50:20.858Z,101567.96
2024-03-19T12:52:52.533Z,101567.71
2024-03-19T12:55:21.976Z,101565.18
2024-03-19T12:57:51.792Z,101563.17
2024-03-19T13:00:24.688Z,101564.69
2024-03-19T13:02:55.980Z,101560.04
2024-03-19T13:05:26.147Z,101564.41
2024-03-19T13:07:57.023Z,101562.52
2024-03-19T13:10:31.426Z,101561.20
2024-03-19T13:13:01.758Z,101562.16
2024-03-19T13:15:35.015Z,101561.88
2024-03-19T13:18:07.875Z,101558.90
2024-03-19T13:20:37.612Z,101557.81
2024-03-19T13:23:11.874Z,101555.16
2024-03-19T13:25:43.724Z,101556.29
2024-03-19T13:28:13.130Z,101553.11
2024-03-19T13:30:42.850Z,101546.65
2024-03-19T13:33:12.261Z,101543.14
2024-03-19T13:35:42.147Z,101542.27
2024-03-19T13:38:14.105Z,101544.10
2024-03-19T13:40:43.539Z,101542.16
2024-03-19T13:43:12.866Z,101546.36
2024-03-19T13:45:53.832Z,101545.31
2024-03-19T13:48:29.968Z,101543.23
2024-03-19T13:50:59.635Z,101545.19
2024-03-19T13:53:29.276Z,101545.31
2024-03-19T13:55:58.722Z,101540.92
2024-03-19T13:58:28.281Z,101540.38
2024-03-19T14:00:59.025Z,101540.83
2024-03-19T14:03:31.810Z,101534.97
2024-03-19T14:06:01.346Z,101532.97
2024-03-19T14:08:31.038Z,101532.55
2024-03-19T14:11:00.744Z,101539.05
2024-03-19T14:13:30.672Z,101536.48
2024-03-19T14:16:02.606Z,101537.79
2024-03-19T14:18:35.982Z,101533.20
2024-03-19T14:21:07.905Z,101531.04
2024-03-19T14:23:42.003Z,101531.46
2024-03-19T14:26:13.566Z,101531.98
2024-03-19T14:28:42.998Z,101525.80
2024-03-19T14:31:12.579Z,101527.23
2024-03-19T14:33:44.361Z,101530.70
2024-03-19T14:36:13.919Z,101533.41
2024-03-19T14:38:43.395Z,101537.84
2024-03-19T14:41:12.727Z,101535.58
2024-03-19T14:43:46.519Z,101531.97
2024-03-19T14:46:21.164Z,101533.20
2024-03-19T14:48:50.532Z,101533.04
2024-03-19T14:51:20.080Z,101533.20
2024-03-19T14:53:51.729Z,101532.55
2024-03-19T14:56:21.045Z,101531.73
2024-03-19T14:58:50.451Z,101530.48
2024-03-19T15:01:19.920Z,101530.42
2024-03-19T15:03:52.330Z,101529.67
2024-03-19T15:06:23.814Z,101531.89
2024-03-19T15:08:53.354Z,101539.25
2024-03-19T15:11:22.896Z,101543.27
2024-03-19T15:13:54.757Z,101536.96
2024-03-19T15:16:24.207Z,101533.42
2024-03-19T15:18:54.556Z,101529.45
2024-03-19T15:21:26.565Z,101530.80
2024-03-19T15:23:56.021Z,101532.24
2024-03-19T15:26:25.513Z,101535.64
2024-03-19T15:28:54.920Z,101537.63
2024-03-19T15:31:24.333Z,101540.73
2024-03-19T15:33:53.717Z,101541.52
2024-03-19T15:36:25.908Z,101544.24
2024-03-19T15:38:55.414Z,101545.84
2024-03-19T15:41:31.697Z,101546.74
2024-03-19T15:44:01.206Z,101546.98
2024-03-19T15:46:30.996Z,101546.57
2024-03-19T15:49:00.366Z,101552.10
2024-03-19T15:51:32.124Z,101553.41
2024-03-19T15:54:01.822Z,101551.48
2024-03-19T15:56:33.723Z,101549.48
2024-03-19T15:59:03.102Z,101547.59
2024-03-19T16:01:32.967Z,101548.31
2024-03-19T16:04:02.447Z,101549.41
2024-03-19T16:06:31.774Z,101549.96
2024-03-19T16:09:01.262Z,101548.70
2024-03-19T16:11:32.884Z,101549.28
2024-03-19T16:14:02.281Z,101547.46
2024-03-19T16:16:34.448Z,101549.77
2024-03-19T16:19:04.618Z,101546.02
2024-03-19T16:21:34.103Z,101548.63
2024-03-19T16:24:04.138Z,101553.14
2024-03-19T16:26:34.111Z,101554.31
2024-03-19T16:29:03.742Z,101555.60
2024-03-19T16:31:33.159Z,101554.86
2024-03-19T16:34:04.848Z,101551.55
2024-03-19T16:36:34.179Z,101556.46
2024-03-19T16:39:04.859Z,101549.50
2024-03-19T16:41:34.647Z,101547.80
2024-03-19T16:44:06.167Z,101552.98
2024-03-19T16:46:35.465Z,101557.13
2024-03-19T16:49:05.137Z,101557.37
2024-03-19T16:51:34.451Z,101559.28
2024-03-19T16:54:03.883Z,101561.81
2024-03-19T16:56:35.806Z,101568.48
2024-03-19T16:59:05.724Z,101564.66
2024-03-19T17:01:36.251Z,101562.79
2024-03-19T17:04:06.535Z,101561.14
2024-03-19T17:06:36.065Z,101563.98
2024-03-19T17:09:09.238Z,101564.92
2024-03-19T17:11:38.636Z,101576.98
2024-03-19T17:14:14.447Z,101579.15
2024-03-19T17:16:44.922Z,101580.61
2024-03-19T17:19:17.724Z,101582.57
2024-03-19T17:21:47.294Z,101580.21
2024-03-19T17:24:17.434Z,101583.13
2024-03-19T17:26:46.984Z,101589.84
2024-03-19T17:29:17.986Z,101590.75
2024-03-19T17:31:49.035Z,101593.32
2024-03-19T17:34:19.885Z,101594.64
2024-03-19T17:36:49.457Z,101594.16
2024-03-19T17:39:19.181Z,101596.40
2024-03-19T17:41:49.005Z,101598.54
2024-03-19T17:44:20.442Z,101602.08
2024-03-19T17:46:49.791Z,101605.16
2024-03-19T17:49:22.858Z,101608.59
2024-03-19T17:51:55.307Z,101614.95
2024-03-19T17:54:24.893Z,101622.49
2024-03-19T17:56:54.394Z,101622.63
2024-03-19T17:59:26.842Z,101626.23
2024-03-19T18:01:56.930Z,101626.77
2024-03-19T18:04:26.372Z,101628.34
2024-03-19T18:06:58.352Z,101634.20
2024-03-19T18:09:27.718Z,101628.28
2024-03-19T18:11:59.531Z,101630.23
2024-03-19T18:14:28.893Z,101629.84
2024-03-19T18:16:58.258Z,101629.87
2024-03-19T18:19:30.150Z,101632.11
2024-03-19T18:21:59.491Z,101631.80
2024-03-19T18:24:32.368Z,101640.29
2024-03-19T18:27:04.902Z,101645.89
2024-03-19T18:29:34.430Z,101649.47
2024-03-19T18:32:04.333Z,101646.19
2024-03-19T18:34:33.744Z,101648.20
2024-03-19T18:37:05.445Z,101649.45
2024-03-19T18:39:39.107Z,101650.06
2024-03-19T18:42:08.607Z,101656.63
2024-03-19T18:44:40.608Z,101653.61
2024-03-19T18:47:10.588Z,101657.15
2024-03-19T18:49:43.486Z,101662.84
2024-03-19T18:52:12.830Z,101661.97
2024-03-19T18:54:42.204Z,101661.59
2024-03-19T18:57:15.386Z,101664.81
2024-03-19T18:59:47.192Z,101666.23
2024-03-19T19:02:19.063Z,101665.91
2024-03-19T19:04:48.518Z,101665.66
2024-03-19T19:07:18.503Z,101665.04
2024-03-19T19:09:47.966Z,101664.03
2024-03-19T19:12:19.943Z,101668.75
2024-03-19T19:14:49.310Z,101666.27
2024-03-19T19:17:18.707Z,101667.98
2024-03-19T19:19:48.121Z,101672.45
2024-03-19T19:22:19.808Z,101670.92
2024-03-19T19:24:49.217Z,101672.86
2024-03-19T19:27:21.101Z,101672.77
2024-03-19T19:29:55.094Z,101667.85
2024-03-19T19:32:24.575Z,101670.29
2024-03-19T19:34:56.788Z,101670.46
2024-03-19T19:37:28.610Z,101671.13
2024-03-19T19:39:58.656Z,101676.29
2024-03-19T19:42:28.009Z,101674.77
2024-03-19T19:44:58.180Z,101675.51
2024-03-19T19:47:30.220Z,101678.90
2024-03-19T19:50:00.871Z,101682.04
2024-03-19T19:52:31.092Z,101690.99
2024-03-19T19:55:00.883Z,101691.67
2024-03-19T19:57:30.413Z,101695.11
2024-03-19T19:59:59.764Z,101693.44
2024-03-19T20:02:29.612Z,101694.84
2024-03-19T20:04:59.250Z,101698.37
2024-03-19T20:07:29.498Z,101692.73
2024-03-19T20:10:01.530Z,101696.45
2024-03-19T20:12:31.080Z,101694.95
2024-03-19T20:15:01.200Z,101693.71
2024-03-19T20:17:30.552Z,101698.16
2024-03-19T20:20:01.053Z,101700.73
2024-03-19T20:22:30.395Z,101705.25
2024-03-19T20:24:59.751Z,101705.86
2024-03-19T20:27:31.268Z,101706.98
2024-03-19T20:30:05.840Z,101710.05
2024-03-19T20:32:35.212Z,101711.00
2024-03-19T20:35:06.968Z,101714.31
2024-03-19T20:37:37.540Z,101716.26
2024-03-19T20:40:14.405Z,101713.64
2024-03-19T20:42:44.632Z,101716.25
2024-03-19T20:45:16.622Z,101717.73
2024-03-19T20:47:47.605Z,101714.22
2024-03-19T20:50:17.476Z,101717.42
2024-03-19T20:52:47.017Z,101718.98
2024-03-19T20:55:16.806Z,101717.42
2024-03-19T20:57:46.262Z,101719.66
2024-03-19T21:00:18.117Z,101724.52
2024-03-19T21:02:47.529Z,101726.77
2024-03-19T21:05:17.534Z,101728.43
2024-03-19T21:07:49.362Z,101727.79
2024-03-19T21:10:18.725Z,101727.32
2024-03-19T21:12:48.519Z,101729.08
2024-03-19T21:15:17.881Z,101727.39
2024-03-19T21:17:49.876Z,101730.83
2024-03-19T21:20:19.486Z,101727.48
2024-03-19T21:22:49.495Z,101730.41
2024-03-19T21:25:22.219Z,101726.42
2024-03-19T21:27:51.777Z,101727.64
2024-03-19T21:30:21.852Z,101729.34
2024-03-19T21:32:51.265Z,101726.60
2024-03-19T21:35:21.023Z,101721.27
2024-03-19T21:37:50.442Z,101722.10
2024-03-19T21:40:20.413Z,101719.55
2024-03-19T21:42:52.337Z,101718.67
2024-03-19T21:45:26.354Z,101718.14
2024-03-19T21:47:55.726Z,101719.08
2024-03-19T21:50:26.244Z,101718.54
2024-03-19T21:52:55.713Z,101716.61
2024-03-19T21:55:25.161Z,101716.51
2024-03-19T21:57:54.578Z,101719.96
2024-03-19T22:00:30.843Z,101723.56
2024-03-19T22:03:00.351Z,101724.98
2024-03-19T22:05:30.129Z,101726.73
2024-03-19T22:07:59.767Z,101720.00
2024-03-19T22:10:30.150Z,101720.70
2024-03-19T22:12:59.525Z,101718.86
2024-03-19T22:15:28.821Z,101717.48
2024-03-19T22:18:01.353Z,101718.25
2024-03-19T22:20:31.064Z,101713.55
2024-03-19T22:23:00.832Z,101716.90
2024-03-19T22:25:30.191Z,101715.66
2024-03-19T22:27:59.593Z,101712.45
2024-03-19T22:30:28.921Z,101713.34
2024-03-19T22:32:58.304Z,101713.39
2024-03-19T22:35:27.792Z,101713.21
2024-03-19T22:38:00.318Z,101711.16
2024-03-19T22:40:32.040Z,101713.13
2024-03-19T22:43:01.333Z,101709.46
2024-03-19T22:45:33.026Z,101712.45
2024-03-19T22:48:02.326Z,101712.66
2024-03-19T22:50:33.978Z,101714.71
2024-03-19T22:53:05.852Z,101714.29
2024-03-19T22:55:35.207Z,101715.93
2024-03-19T22:58:04.793Z,101712.63
2024-03-19T23:00:35.590Z,101708.81
2024-03-19T23:03:05.958Z,101706.80
2024-03-19T23:05:35.343Z,101707.88
2024-03-19T23:08:05.509Z,101710.29
2024-03-19T23:10:39.243Z,101705.05
2024-03-19T23:13:08.713Z,101707.66
2024-03-19T23:15:40.764Z,101705.61
2024-03-19T23:18:12.441Z,101701.76
2024-03-19T23:20:41.863Z,101701.19
2024-03-19T23:23:11.330Z,101701.60
2024-03-19T23:25:43.165Z,101701.45
2024-03-19T23:28:14.646Z,101698.38
2024-03-19T23:30:44.027Z,101696.21
2024-03-19T23:33:15.543Z,101696.16
2024-03-19T23:35:44.885Z,101691.70
2024-03-19T23:38:14.398Z,101694.17
2024-03-19T23:40:46.692Z,101692.58
2024-03-19T23:43:16.040Z,101697.34
2024-03-19T23:45:45.657Z,101697.05
2024-03-19T23:48:14.978Z,101698.82
2024-03-19T23:50:44.588Z,101696.17
2024-03-19T23:53:16.437Z,101696.44
2024-03-19T23:55:45.839Z,101696.27
2024-03-19T23:58:17.290Z,101698.36
